Time;durP1;ratioP1;P1;durP2;ratioP2;P2;SDS_P1;SDS_P2;PMS_P1;PMS_P2;Temp;Humidity;BMP_temperature;BMP_pressure;BME280_temperature;BME280_humidity;BME280_pressure;Samples;Min_cycle;Max_cycle;Signal;HPM_P1;HPM_P2
2021/03/30 00:01:23;;;;;;;22.05;17.23;;;;;;;10.08;87.93;101625.08;1774507;79;25867;-78
2021/03/30 00:03:49;;;;;;;23.65;17.07;;;;;;;10.12;87.79;101627.31;1751104;80;25850;-78
2021/03/30 00:06:16;;;;;;;22.48;17.45;;;;;;;10.15;87.70;101627.05;1779602;78;25741;-78
2021/03/30 00:08:42;;;;;;;25.12;17.27;;;;;;;10.17;87.58;101620.37;1774588;79;26241;-78
2021/03/30 00:11:09;;;;;;;24.35;16.67;;;;;;;10.17;87.49;101617.76;1748465;80;25896;-78
2021/03/30 00:13:36;;;;;;;24.52;17.65;;;;;;;10.20;87.50;101612.27;1781304;79;26399;-78
2021/03/30 00:16:03;;;;;;;23.18;17.75;;;;;;;10.18;87.41;101616.34;1781759;78;25715;-78
2021/03/30 00:18:29;;;;;;;26.25;17.85;;;;;;;10.21;87.40;101615.25;1780765;79;25767;-78
2021/03/30 00:20:57;;;;;;;26.37;17.73;;;;;;;10.20;87.34;101613.58;1771280;79;25861;-78
2021/03/30 00:23:23;;;;;;;26.17;17.77;;;;;;;10.18;87.27;101611.11;1751794;80;26042;-78
2021/03/30 00:25:50;;;;;;;24.90;17.00;;;;;;;10.18;87.24;101610.29;1771507;79;25723;-78
2021/03/30 00:28:16;;;;;;;23.22;16.23;;;;;;;10.16;87.28;101610.41;1749443;80;25842;-78
2021/03/30 00:30:42;;;;;;;24.07;16.12;;;;;;;10.14;87.23;101602.34;1779808;79;25297;-78
2021/03/30 00:33:09;;;;;;;23.35;16.12;;;;;;;10.18;87.37;101607.67;1774724;79;25343;-78
2021/03/30 00:35:35;;;;;;;25.55;16.85;;;;;;;10.15;87.27;101610.06;1748371;80;25802;-78
2021/03/30 00:38:01;;;;;;;24.27;16.15;;;;;;;10.19;87.35;101611.45;1772648;79;25425;-78
2021/03/30 00:40:27;;;;;;;23.50;15.78;;;;;;;10.19;87.29;101606.22;1751047;80;25847;-78
2021/03/30 00:42:56;;;;;;;24.65;15.55;;;;;;;10.21;87.26;101603.00;1747873;78;26380;-78
2021/03/30 00:45:22;;;;;;;22.85;14.85;;;;;;;10.22;87.19;101610.36;1773096;79;26428;-78
2021/03/30 00:47:49;;;;;;;23.60;15.45;;;;;;;10.27;87.22;101608.66;1751413;80;25914;-78
2021/03/30 00:50:22;;;;;;;24.12;16.42;;;;;;;10.29;87.18;101611.53;1775284;78;26261;-78
2021/03/30 00:52:49;;;;;;;25.82;16.45;;;;;;;10.34;87.09;101609.80;1780454;79;25782;-77
2021/03/30 00:55:21;;;;;;;22.37;15.38;;;;;;;10.37;86.95;101609.56;1776116;79;25808;-77
2021/03/30 00:57:49;;;;;;;23.30;15.25;;;;;;;10.38;86.92;101608.11;1774394;79;26371;-78
2021/03/30 01:00:17;;;;;;;23.47;16.60;;;;;;;10.39;86.79;101608.47;1747486;80;25775;-78
2021/03/30 01:02:43;;;;;;;24.18;16.02;;;;;;;10.41;86.78;101609.63;1782471;79;25346;-78
2021/03/30 01:05:13;;;;;;;22.40;15.08;;;;;;;10.42;86.72;101609.52;1780275;78;26250;-78
2021/03/30 01:07:44;;;;;;;20.97;14.63;;;;;;;10.41;86.69;101609.14;1781367;78;25747;-78
2021/03/30 01:10:41;;;;;;;25.88;17.25;;;;;;;10.40;86.57;101610.60;1766679;79;25817;-78
2021/03/30 01:13:21;;;;;;;20.92;14.60;;;;;;;10.40;86.63;101607.50;1678562;83;25955;-78
2021/03/30 01:16:07;;;;;;;23.70;16.45;;;;;;;10.43;86.59;101609.03;1700955;82;25867;-78
2021/03/30 01:18:56;;;;;;;25.75;15.72;;;;;;;10.45;86.67;101608.42;1679750;83;25647;-78
2021/03/30 01:21:33;;;;;;;25.62;17.45;;;;;;;10.43;86.57;101615.56;1697214;82;26055;-79
2021/03/30 01:24:22;;;;;;;22.32;15.63;;;;;;;10.40;86.54;101612.73;1700879;82;25412;-78
2021/03/30 01:27:13;;;;;;;22.60;15.80;;;;;;;10.41;86.68;101612.24;1689064;83;25554;-78
2021/03/30 01:29:51;;;;;;;23.67;15.68;;;;;;;10.36;86.65;101611.33;1691933;83;25938;-79
2021/03/30 01:32:47;;;;;;;26.27;15.18;;;;;;;10.30;86.56;101610.55;1698288;83;26621;-77
2021/03/30 01:35:17;;;;;;;27.37;16.95;;;;;;;10.28;86.65;101613.77;1735494;80;25793;-77
2021/03/30 01:37:46;;;;;;;25.02;16.12;;;;;;;10.26;86.70;101612.22;1737144;80;26264;-77
2021/03/30 01:40:22;;;;;;;27.07;15.68;;;;;;;10.25;86.73;101607.96;1738474;80;26049;-77
2021/03/30 01:42:51;;;;;;;27.02;16.42;;;;;;;10.25;86.81;101610.09;1735935;80;25873;-76
2021/03/30 01:45:20;;;;;;;26.77;15.53;;;;;;;10.25;86.75;101604.86;1730854;80;26367;-76
2021/03/30 01:47:47;;;;;;;26.23;16.93;;;;;;;10.28;86.89;101602.02;1787681;77;26169;-77
2021/03/30 01:50:14;;;;;;;26.73;16.93;;;;;;;10.26;86.75;101594.78;1812823;77;26877;-77
2021/03/30 01:52:41;;;;;;;24.75;17.17;;;;;;;10.27;86.83;101591.68;1790184;77;25859;-77
2021/03/30 01:55:11;;;;;;;18.92;15.55;;;;;;;10.23;86.74;101594.56;1816039;77;25702;-77
2021/03/30 01:57:40;;;;;;;23.27;16.12;;;;;;;10.19;86.85;101593.16;1813673;77;25694;-77
2021/03/30 02:00:09;;;;;;;23.30;15.88;;;;;;;10.19;86.98;101591.03;1814147;77;25993;-77
2021/03/30 02:02:44;;;;;;;24.98;16.65;;;;;;;10.16;87.04;101588.20;1811090;77;26463;-77
2021/03/30 02:05:14;;;;;;;29.63;16.73;;;;;;;10.12;87.03;101588.58;1810580;77;26420;-77
2021/03/30 02:07:42;;;;;;;27.65;17.02;;;;;;;10.10;87.12;101596.57;1815913;77;25848;-77
2021/03/30 02:10:19;;;;;;;27.13;17.20;;;;;;;10.16;87.32;101592.60;1817026;77;25830;-76
2021/03/30 02:12:43;;;;;;;25.62;17.05;;;;;;;10.13;87.19;101590.25;1811595;77;26510;-76
2021/03/30 02:15:13;;;;;;;26.40;18.57;;;;;;;10.11;87.24;101585.64;1787671;77;26642;-79
2021/03/30 02:17:50;;;;;;;27.70;17.62;;;;;;;10.13;87.27;101591.08;1742614;80;25856;-78
2021/03/30 02:20:33;;;;;;;24.90;18.37;;;;;;;10.12;87.30;101585.52;1757695;79;25954;-78
2021/03/30 02:23:05;;;;;;;23.62;16.60;;;;;;;10.14;87.29;101587.98;1758513;79;25905;-78
2021/03/30 02:25:32;;;;;;;25.00;18.00;;;;;;;10.17;87.30;101582.48;1757275;79;25694;-78
2021/03/30 02:28:07;;;;;;;26.93;18.50;;;;;;;10.18;87.22;101581.55;1754225;79;25769;-78
2021/03/30 02:30:36;;;;;;;26.37;17.48;;;;;;;10.15;87.24;101585.73;1735673;82;26290;-78
2021/03/30 02:33:05;;;;;;;43.85;18.80;;;;;;;10.12;87.37;101584.20;1765997;79;25855;-78
2021/03/30 02:35:33;;;;;;;26.47;18.20;;;;;;;10.10;87.45;101591.34;1731223;81;26322;-78
2021/03/30 02:38:03;;;;;;;23.60;16.48;;;;;;;10.10;87.44;101590.52;1739638;80;25854;-78
2021/03/30 02:40:30;;;;;;;24.45;17.52;;;;;;;10.08;87.52;101586.72;1735891;81;26193;-78
2021/03/30 02:42:58;;;;;;;27.85;18.90;;;;;;;10.09;87.57;101588.36;1741658;80;26309;-78
2021/03/30 02:45:28;;;;;;;30.95;19.07;;;;;;;10.09;87.57;101587.55;1762818;80;25478;-79
2021/03/30 02:48:01;;;;;;;28.60;17.73;;;;;;;10.13;87.58;101588.95;1749357;81;25924;-79
2021/03/30 02:50:28;;;;;;;28.05;18.77;;;;;;;10.17;87.54;101591.14;1743128;80;26559;-79
2021/03/30 02:52:58;;;;;;;26.07;17.27;;;;;;;10.21;87.46;101587.33;1735660;81;26453;-79
2021/03/30 02:55:24;;;;;;;27.82;17.27;;;;;;;10.27;87.38;101595.14;1714123;80;25813;-79
2021/03/30 02:57:51;;;;;;;28.57;17.87;;;;;;;10.30;87.31;101585.73;1747911;80;26249;-79
2021/03/30 03:00:19;;;;;;;26.02;18.05;;;;;;;10.31;87.16;101588.71;1732076;81;26302;-79
2021/03/30 03:02:47;;;;;;;25.40;17.92;;;;;;;10.33;87.12;101591.99;1763796;81;25778;-79
2021/03/30 03:05:14;;;;;;;24.07;17.10;;;;;;;10.37;87.08;101591.27;1759867;80;25824;-79
2021/03/30 03:07:41;;;;;;;27.77;17.42;;;;;;;10.40;87.00;101593.61;1742223;80;26020;-79
2021/03/30 03:10:09;;;;;;;24.37;17.32;;;;;;;10.38;86.96;101592.42;1740570;80;25956;-79
2021/03/30 03:12:38;;;;;;;24.27;16.55;;;;;;;10.37;86.87;101590.78;1743312;80;25736;-79
2021/03/30 03:15:11;;;;;;;26.15;17.80;;;;;;;10.39;86.86;101599.78;1749262;80;26286;-79
2021/03/30 03:17:40;;;;;;;26.60;16.70;;;;;;;10.38;86.82;101591.12;1763043;79;25673;-79
2021/03/30 03:20:09;;;;;;;23.35;16.93;;;;;;;10.37;86.85;101592.09;1737575;81;25859;-79
2021/03/30 03:22:37;;;;;;;23.25;16.65;;;;;;;10.39;86.81;101598.02;1737628;81;26222;-79
2021/03/30 03:25:06;;;;;;;30.23;17.52;;;;;;;10.40;86.94;101595.74;1764599;80;25767;-79
2021/03/30 03:27:35;;;;;;;23.70;16.07;;;;;;;10.36;86.69;101593.03;1743928;80;26424;-79
2021/03/30 03:30:11;;;;;;;26.00;16.73;;;;;;;10.38;86.87;101591.12;1770080;79;25821;-79
2021/03/30 03:32:38;;;;;;;28.23;16.82;;;;;;;10.39;86.81;101591.94;1771293;80;25735;-79
2021/03/30 03:35:11;;;;;;;25.10;16.65;;;;;;;10.40;86.76;101594.92;1771891;79;25309;-79
2021/03/30 03:37:45;;;;;;;24.65;16.57;;;;;;;10.39;86.62;101593.25;1767547;79;25711;-78
2021/03/30 03:40:14;;;;;;;25.40;17.37;;;;;;;10.36;86.74;101591.72;1767097;79;26518;-79
2021/03/30 03:42:41;;;;;;;26.35;16.95;;;;;;;10.38;86.77;101599.45;1771383;79;25659;-79
2021/03/30 03:45:10;;;;;;;34.33;20.92;;;;;;;10.39;86.99;101595.86;1770005;79;25660;-79
2021/03/30 03:47:36;;;;;;;29.95;20.02;;;;;;;10.37;86.73;101594.70;1766757;79;25875;-78
2021/03/30 03:50:04;;;;;;;31.73;19.25;;;;;;;10.35;86.74;101596.62;1768327;79;27107;-78
2021/03/30 03:52:40;;;;;;;30.52;21.77;;;;;;;10.33;86.82;101602.94;1767195;79;26045;-78
2021/03/30 03:55:10;;;;;;;31.52;19.98;;;;;;;10.29;86.91;101595.02;1769718;79;25872;-78
2021/03/30 03:57:45;;;;;;;33.00;20.40;;;;;;;10.27;86.98;101606.91;1769782;79;26620;-78
2021/03/30 04:00:11;;;;;;;32.67;24.15;;;;;;;10.27;87.06;101606.05;1755153;79;25892;-78
2021/03/30 04:02:49;;;;;;;38.50;28.30;;;;;;;10.29;87.18;101603.69;1749198;80;25872;-78
2021/03/30 04:05:22;;;;;;;34.40;24.75;;;;;;;10.30;87.29;101604.51;1769896;79;25881;-78
2021/03/30 04:08:14;;;;;;;34.27;27.42;;;;;;;10.28;87.23;101603.80;1747633;80;26241;-78
2021/03/30 04:10:49;;;;;;;29.70;21.93;;;;;;;10.29;87.28;101606.78;1745730;80;25325;-78
2021/03/30 04:13:20;;;;;;;32.15;24.25;;;;;;;10.27;87.34;101606.05;1771017;79;25770;-78
2021/03/30 04:15:47;;;;;;;34.03;24.35;;;;;;;10.25;87.37;101609.27;1746569;80;25701;-78
2021/03/30 04:18:13;;;;;;;29.32;22.52;;;;;;;10.22;87.60;101610.36;1772712;79;25491;-78
2021/03/30 04:20:41;;;;;;;30.85;21.45;;;;;;;10.19;87.89;101606.22;1743884;80;26309;-78
2021/03/30 04:23:07;;;;;;;28.95;20.57;;;;;;;10.16;87.91;101606.97;1747215;80;25758;-78
2021/03/30 04:25:34;;;;;;;31.20;19.77;;;;;;;10.13;88.06;101611.98;1765856;78;25772;-78
2021/03/30 04:28:00;;;;;;;29.25;22.20;;;;;;;10.11;88.06;101609.97;1770047;79;25731;-79
2021/03/30 04:30:27;;;;;;;32.55;21.80;;;;;;;10.12;88.11;101616.02;1750926;80;26427;-78
2021/03/30 04:32:53;;;;;;;31.10;23.20;;;;;;;10.14;88.25;101614.11;1778007;79;25872;-78
2021/03/30 04:35:20;;;;;;;36.42;24.87;;;;;;;10.15;88.24;101612.68;1773505;79;25847;-79
2021/03/30 04:37:46;;;;;;;33.50;22.95;;;;;;;10.17;88.34;101610.73;1750814;80;25769;-78
2021/03/30 04:40:13;;;;;;;33.13;23.20;;;;;;;10.17;88.37;101609.92;1778839;79;25805;-79
2021/03/30 04:42:40;;;;;;;34.03;25.27;;;;;;;10.18;88.78;101609.80;1780251;79;25781;-79
2021/03/30 04:45:10;;;;;;;32.42;25.62;;;;;;;10.20;88.49;101614.88;1777680;78;25701;-79
2021/03/30 04:47:36;;;;;;;34.33;24.50;;;;;;;10.17;88.59;101613.35;1780965;80;26472;-78
2021/03/30 04:50:06;;;;;;;29.70;25.00;;;;;;;10.15;88.53;101623.62;1776634;79;25911;-79
2021/03/30 04:52:32;;;;;;;;;;;;;;;10.13;88.58;101623.73;1753276;80;26023;-79
2021/03/30 04:54:58;;;;;;;38.75;26.93;;;;;;;10.15;88.70;101623.13;1780222;79;25555;-79
2021/03/30 04:57:25;;;;;;;38.08;27.67;;;;;;;10.17;88.96;101624.29;1779698;79;25358;-77
2021/03/30 04:59:51;;;;;;;37.80;25.27;;;;;;;10.16;89.00;101622.16;1771162;79;26035;-77
2021/03/30 05:02:17;;;;;;;32.75;25.77;;;;;;;10.16;89.06;101618.73;1748085;80;26427;-77
2021/03/30 05:04:44;;;;;;;36.95;25.57;;;;;;;10.13;89.16;101615.89;1770255;79;26740;-77
2021/03/30 05:07:10;;;;;;;34.45;25.90;;;;;;;10.11;89.18;101616.50;1770750;79;25904;-77
2021/03/30 05:09:37;;;;;;;30.17;23.15;;;;;;;10.13;89.16;101613.28;1777214;78;25838;-77
2021/03/30 05:12:03;;;;;;;37.63;23.45;;;;;;;10.14;89.42;101622.77;1780377;78;25900;-77
2021/03/30 05:14:30;;;;;;;32.08;21.20;;;;;;;10.16;89.39;101618.73;1780082;78;25920;-77
2021/03/30 05:16:56;;;;;;;29.00;19.52;;;;;;;10.17;89.42;101620.37;1777181;79;26459;-78
2021/03/30 05:19:23;;;;;;;31.27;20.30;;;;;;;10.17;89.52;101619.88;1778620;78;25743;-78
2021/03/30 05:21:49;;;;;;;32.35;21.23;;;;;;;10.17;89.42;101621.67;1778446;78;26427;-77
2021/03/30 05:24:19;;;;;;;24.43;18.80;;;;;;;10.19;89.49;101619.77;1780853;78;53914;-77
2021/03/30 05:26:44;;;;;;;30.80;19.82;;;;;;;10.19;89.69;101627.13;1747926;80;25497;-77
2021/03/30 05:29:10;;;;;;;27.85;19.02;;;;;;;10.19;89.64;101626.30;1777390;78;26992;-77
2021/03/30 05:31:37;;;;;;;29.07;20.10;;;;;;;10.22;89.75;101629.47;1770572;79;25775;-78
2021/03/30 05:34:04;;;;;;;27.55;19.73;;;;;;;10.27;89.76;101625.65;1774587;78;25882;-78
2021/03/30 05:36:30;;;;;;;27.17;18.48;;;;;;;10.28;89.81;101616.38;1773962;78;25320;-78
2021/03/30 05:38:57;;;;;;;28.27;20.50;;;;;;;10.28;90.41;101624.23;1749759;80;25398;-77
2021/03/30 05:41:24;;;;;;;26.33;19.85;;;;;;;10.23;90.22;101631.14;1751851;79;27380;-77
2021/03/30 05:43:52;;;;;;;27.45;19.62;;;;;;;10.22;90.25;101632.56;1775063;78;25314;-78
2021/03/30 05:46:18;;;;;;;29.10;20.30;;;;;;;10.23;90.33;101629.84;1774777;78;25890;-78
2021/03/30 05:48:46;;;;;;;29.90;20.02;;;;;;;10.26;90.51;101627.44;1774245;79;26009;-78
2021/03/30 05:51:13;;;;;;;28.12;20.10;;;;;;;10.27;90.65;101626.50;1776860;79;25714;-77
2021/03/30 05:53:43;;;;;;;28.10;20.48;;;;;;;10.28;90.92;101622.92;1774040;79;26048;-78
2021/03/30 05:56:11;;;;;;;28.62;20.02;;;;;;;10.26;91.12;101623.98;1774038;78;25760;-78
2021/03/30 05:58:42;;;;;;;25.75;19.42;;;;;;;10.23;91.01;101631.14;1774325;78;25886;-78
2021/03/30 06:01:12;;;;;;;30.00;21.15;;;;;;;10.25;91.44;101625.77;1771803;78;25838;-78
2021/03/30 06:03:38;;;;;;;;;;;;;;;10.24;91.20;101626.73;1779286;78;25743;-78
2021/03/30 06:06:05;;;;;;;43.30;21.40;;;;;;;10.28;91.21;101630.76;1773291;78;26028;-78
2021/03/30 06:08:31;;;;;;;42.53;21.90;;;;;;;10.31;91.18;101630.98;1773385;79;25958;-78
2021/03/30 06:11:05;;;;;;;32.40;20.27;;;;;;;10.37;91.15;101630.47;1776436;79;25809;-78
2021/03/30 06:13:53;;;;;;;27.40;18.87;;;;;;;10.42;91.06;101632.19;1774203;79;25518;-78
2021/03/30 06:16:31;;;;;;;29.55;19.95;;;;;;;10.48;91.05;101628.23;1773939;78;25936;-79
2021/03/30 06:19:12;;;;;;;31.07;21.52;;;;;;;10.50;91.09;101630.22;1772507;78;26504;-79
2021/03/30 06:21:46;;;;;;;39.88;22.60;;;;;;;10.52;91.01;101631.73;1774383;79;26566;-79
2021/03/30 06:24:25;;;;;;;44.67;23.27;;;;;;;10.56;91.01;101631.02;1768871;78;25922;-77
2021/03/30 06:26:57;;;;;;;36.68;23.18;;;;;;;10.60;91.10;101637.62;1773153;78;25844;-77
2021/03/30 06:29:35;;;;;;;36.33;21.60;;;;;;;10.69;91.17;101628.14;1775171;78;26170;-77
2021/03/30 06:31:59;;;;;;;41.08;24.77;;;;;;;10.72;91.18;101633.95;1748067;80;25726;-76
2021/03/30 06:34:29;;;;;;;38.85;23.47;;;;;;;10.80;91.25;101633.25;1775101;78;25913;-81
2021/03/30 06:36:57;;;;;;;31.30;22.75;;;;;;;10.81;91.25;101637.05;1752198;79;26180;-80
2021/03/30 06:39:40;;;;;;;35.48;21.70;;;;;;;10.86;91.23;101641.40;1774033;78;25796;-80
2021/03/30 06:42:18;;;;;;;41.08;22.15;;;;;;;10.89;91.42;101643.74;1771464;78;25883;-80
2021/03/30 06:44:39;;;;;;;32.42;22.55;;;;;;;10.90;91.63;101645.88;1771007;79;25866;-79
2021/03/30 06:47:15;;;;;;;32.35;21.40;;;;;;;10.96;91.69;101641.39;1771079;78;26667;-82
2021/03/30 06:50:04;;;;;;;31.93;22.67;;;;;;;11.04;91.82;101646.78;1772893;78;25793;-76
2021/03/30 06:52:34;;;;;;;38.20;23.05;;;;;;;11.10;91.71;101647.56;1770622;78;25784;-76
2021/03/30 06:55:08;;;;;;;45.38;27.65;;;;;;;11.17;91.76;101641.28;1775662;79;25806;-79
2021/03/30 06:57:47;;;;;;;34.92;22.98;;;;;;;11.24;91.66;101645.48;1774546;78;26779;-79
2021/03/30 07:00:22;;;;;;;38.53;26.62;;;;;;;11.31;91.59;101642.66;1773755;78;26058;-78
2021/03/30 07:02:53;;;;;;;34.03;24.27;;;;;;;11.37;91.53;101638.66;1768225;78;25895;-79
2021/03/30 07:05:39;;;;;;;30.90;21.52;;;;;;;11.39;91.30;101644.11;1775649;79;25506;-80
2021/03/30 07:08:14;;;;;;;32.30;24.05;;;;;;;11.41;91.16;101642.67;1772817;79;25674;-82
2021/03/30 07:10:45;;;;;;;39.85;24.55;;;;;;;11.39;90.89;101644.59;1777013;78;26357;-81
2021/03/30 07:13:14;;;;;;;34.58;23.73;;;;;;;11.45;91.02;101647.47;1770088;80;26260;-77
2021/03/30 07:15:41;;;;;;;31.93;24.75;;;;;;;11.51;90.93;101649.56;1771049;79;25879;-78
2021/03/30 07:18:39;;;;;;;30.80;23.35;;;;;;;11.52;90.51;101644.66;1777476;78;26001;-77
2021/03/30 07:21:20;;;;;;;35.30;24.00;;;;;;;11.54;90.29;101656.31;1740012;80;25788;-82
2021/03/30 07:23:57;;;;;;;30.68;21.87;;;;;;;11.53;90.06;101665.94;1771915;78;25891;-82
2021/03/30 07:26:28;;;;;;;32.70;21.85;;;;;;;11.50;89.68;101661.47;1741811;80;25760;-81
2021/03/30 07:29:05;;;;;;;38.45;26.12;;;;;;;11.52;89.79;101664.78;1771962;79;25933;-81
2021/03/30 07:32:15;;;;;;;35.00;23.52;;;;;;;11.58;89.89;101668.63;1750156;80;25728;-81
2021/03/30 07:34:53;;;;;;;27.80;20.82;;;;;;;11.62;89.84;101665.61;1744589;79;26079;-81
2021/03/30 07:37:44;;;;;;;30.17;21.05;;;;;;;11.71;90.04;101655.59;1776946;78;26344;-81
2021/03/30 07:40:14;;;;;;;35.63;19.62;;;;;;;11.76;89.57;101669.09;1780002;78;25695;-81
2021/03/30 07:42:43;;;;;;;25.20;17.75;;;;;;;11.79;89.36;101669.30;1780719;78;25931;-82
2021/03/30 07:45:12;;;;;;;26.65;18.57;;;;;;;11.84;89.36;101666.23;1779421;78;26305;-82
2021/03/30 07:47:39;;;;;;;30.60;18.55;;;;;;;11.90;89.33;101661.80;1742636;80;25853;-79
2021/03/30 07:50:09;;;;;;;27.65;18.87;;;;;;;11.95;88.96;101665.64;1779055;78;26445;-80
2021/03/30 07:52:43;;;;;;;27.90;19.10;;;;;;;11.98;88.43;101675.02;1777916;79;25896;-82
2021/03/30 07:55:18;;;;;;;34.88;20.92;;;;;;;11.95;87.88;101668.75;1742810;80;25977;-81
2021/03/30 07:58:11;;;;;;;31.80;19.35;;;;;;;11.92;87.87;101672.94;1757552;79;25830;-78
2021/03/30 08:00:49;;;;;;;33.08;20.15;;;;;;;11.95;88.05;101679.23;1749982;80;25337;-81
2021/03/30 08:03:20;;;;;;;25.37;17.48;;;;;;;11.98;88.03;101676.33;1781293;79;25883;-80
2021/03/30 08:06:09;;;;;;;29.95;19.90;;;;;;;12.02;87.95;101673.75;1776453;78;26442;-80
2021/03/30 08:08:53;;;;;;;27.85;20.48;;;;;;;12.04;87.77;101674.94;1769652;79;26392;-80
2021/03/30 08:11:43;;;;;;;37.85;21.20;;;;;;;12.07;87.90;101676.78;1741825;80;26676;-83
2021/03/30 08:14:22;;;;;;;;;;;;;;;12.13;87.97;101681.94;1740633;80;25539;-82
2021/03/30 08:16:52;;;;;;;30.95;22.35;;;;;;;12.20;87.96;101679.09;1777302;78;25925;-81
2021/03/30 08:19:19;;;;;;;34.98;22.82;;;;;;;12.22;87.36;101688.92;1770752;79;26072;-83
2021/03/30 08:22:07;;;;;;;32.93;20.45;;;;;;;12.20;87.14;101686.47;1719764;81;25973;-82
2021/03/30 08:24:51;;;;;;;34.15;22.98;;;;;;;12.24;86.94;101692.23;1775742;78;25666;-81
2021/03/30 08:27:38;;;;;;;35.43;23.38;;;;;;;12.26;86.88;101695.55;1778602;78;26371;-81
2021/03/30 08:30:29;;;;;;;32.80;21.50;;;;;;;12.28;86.69;101686.25;1772805;79;25718;-82
2021/03/30 08:32:57;;;;;;;31.77;21.27;;;;;;;12.30;86.66;101692.16;1748123;80;25701;-81
2021/03/30 08:35:39;;;;;;;27.35;20.05;;;;;;;12.29;86.44;101686.58;1748928;79;26561;-81
2021/03/30 08:38:05;;;;;;;25.65;18.92;;;;;;;12.33;86.50;101691.41;1773140;79;25837;-81
2021/03/30 08:40:39;;;;;;;29.50;20.68;;;;;;;12.37;86.39;101692.75;1754665;80;25809;-80
2021/03/30 08:43:21;;;;;;;29.57;20.57;;;;;;;12.44;86.58;101685.16;1751454;80;26364;-81
2021/03/30 08:46:04;;;;;;;31.75;21.00;;;;;;;12.54;86.63;101686.41;1771523;79;25858;-81
2021/03/30 08:48:38;;;;;;;24.98;17.85;;;;;;;12.60;86.09;101689.75;1738094;80;26177;-80
2021/03/30 08:51:07;;;;;;;28.77;19.75;;;;;;;12.59;85.50;101686.80;1777522;78;26447;-80
2021/03/30 08:53:35;;;;;;;28.12;18.92;;;;;;;12.57;85.42;101686.93;1773582;79;25773;-80
2021/03/30 08:56:09;;;;;;;29.87;19.90;;;;;;;12.61;85.41;101692.73;1747218;80;26124;-80
2021/03/30 08:58:32;;;;;;;26.90;18.95;;;;;;;12.63;85.54;101692.93;1749247;80;25958;-79
2021/03/30 09:01:04;;;;;;;26.33;18.17;;;;;;;12.62;85.57;101675.52;1771435;79;25813;-80
2021/03/30 09:03:30;;;;;;;26.68;18.75;;;;;;;12.75;85.22;101690.11;1745880;80;25695;-73
2021/03/30 09:05:57;;;;;;;28.60;19.12;;;;;;;12.77;85.23;101688.99;1742490;79;26392;-72
2021/03/30 09:08:41;;;;;;;30.62;21.65;;;;;;;12.86;85.04;101682.85;1771069;79;25783;-73
2021/03/30 09:11:20;;;;;;;29.15;19.15;;;;;;;12.84;84.54;101691.34;1747143;80;25970;-73
2021/03/30 09:14:06;;;;;;;30.97;21.15;;;;;;;12.84;84.55;101690.03;1779909;78;25791;-75
2021/03/30 09:16:34;;;;;;;34.60;22.65;;;;;;;12.86;84.36;101696.47;1779008;78;25721;-73
2021/03/30 09:20:02;;;;;;;30.92;22.02;;;;;;;12.85;84.49;101693.52;1780297;78;26188;-78
2021/03/30 09:23:14;;;;;;;28.83;22.40;;;;;;;12.81;84.33;101700.01;1780069;78;25948;-80
2021/03/30 09:25:51;;;;;;;34.98;24.12;;;;;;;12.72;84.29;101706.14;1777415;78;25347;-77
2021/03/30 09:28:23;;;;;;;30.35;21.80;;;;;;;12.64;84.44;101705.55;1754324;79;25939;-77
2021/03/30 09:30:50;;;;;;;26.95;21.48;;;;;;;12.62;84.51;101703.06;1736957;79;26184;-77
2021/03/30 09:33:17;;;;;;;30.77;24.20;;;;;;;;;;1732994;80;25802;-77
2021/03/30 09:35:43;;;;;;;29.92;22.35;;;;;;;12.52;84.73;101712.80;1703556;81;25955;-78
2021/03/30 09:38:10;;;;;;;26.93;20.90;;;;;;;12.49;84.90;101704.37;1732423;81;26237;-80
2021/03/30 09:40:40;;;;;;;24.60;18.92;;;;;;;12.44;85.06;101703.02;1732357;81;25777;-80
2021/03/30 09:43:11;;;;;;;28.50;23.18;;;;;;;12.47;85.31;101711.08;1734558;80;25873;-78
2021/03/30 09:45:40;;;;;;;29.75;22.98;;;;;;;12.44;85.40;101704.82;1731706;80;25990;-81
2021/03/30 09:48:11;;;;;;;29.18;22.07;;;;;;;12.39;85.48;101705.73;1733243;80;26369;-78
2021/03/30 09:50:52;;;;;;;28.07;25.17;;;;;;;12.34;85.80;101704.02;1732109;81;25987;-78
2021/03/30 09:53:20;;;;;;;27.65;23.75;;;;;;;12.30;85.87;101707.88;1732458;81;25735;-79
2021/03/30 09:55:47;;;;;;;31.17;25.72;;;;;;;12.32;86.04;101702.84;1732669;81;25883;-80
2021/03/30 09:58:16;;;;;;;29.50;22.40;;;;;;;12.39;86.21;101702.62;1732146;81;25768;-79
2021/03/30 10:00:49;;;;;;;24.35;18.87;;;;;;;12.54;86.44;101696.89;1730252;81;26358;-79
2021/03/30 10:03:16;;;;;;;25.90;20.12;;;;;;;12.63;86.06;101694.70;1732882;79;25631;-78
2021/03/30 10:05:44;;;;;;;21.20;17.05;;;;;;;12.75;86.05;101698.80;1730228;81;26034;-82
2021/03/30 10:08:29;;;;;;;18.32;14.90;;;;;;;12.86;85.68;101699.91;1726047;81;25742;-81
2021/03/30 10:10:58;;;;;;;22.70;16.30;;;;;;;12.95;85.11;101697.38;1749456;79;26611;-81
2021/03/30 10:13:32;;;;;;;18.23;14.73;;;;;;;13.04;85.09;101699.95;1744251;80;25740;-81
2021/03/30 10:16:02;;;;;;;16.50;12.28;;;;;;;13.11;84.75;101695.73;1744103;80;26305;-81
2021/03/30 10:18:29;;;;;;;15.48;11.43;;;;;;;13.22;84.35;101698.64;1744040;80;25759;-82
2021/03/30 10:21:11;;;;;;;15.18;10.60;;;;;;;13.27;83.62;101696.42;1743305;80;26367;-80
2021/03/30 10:23:51;;;;;;;16.12;10.93;;;;;;;13.30;83.17;101693.98;1744870;80;26149;-79
2021/03/30 10:26:27;;;;;;;17.80;12.35;;;;;;;13.30;83.17;101693.50;1743872;80;26423;-79
2021/03/30 10:29:00;;;;;;;14.75;10.45;;;;;;;13.34;83.29;101692.73;1744760;80;25778;-79
2021/03/30 10:31:56;;;;;;;16.67;11.35;;;;;;;13.31;82.32;101689.91;1757856;79;26669;-80
2021/03/30 10:34:31;;;;;;;16.07;11.53;;;;;;;13.26;82.52;101690.84;1764073;79;25765;-78
2021/03/30 10:37:02;;;;;;;17.20;12.88;;;;;;;13.22;82.51;101699.95;1764969;79;25833;-82
2021/03/30 10:39:42;;;;;;;21.33;15.13;;;;;;;13.17;82.16;101702.20;1765640;79;25754;-82
2021/03/30 10:42:15;;;;;;;15.32;10.93;;;;;;;13.06;81.99;101705.86;1767914;79;25782;-77
2021/03/30 10:44:48;;;;;;;14.47;9.63;;;;;;;12.99;81.90;101703.50;1767520;79;25764;-77
2021/03/30 10:47:29;;;;;;;14.07;8.38;;;;;;;12.97;81.64;101697.56;1757816;80;26001;-81
2021/03/30 10:49:56;;;;;;;13.70;8.05;;;;;;;12.96;81.44;101703.80;1766533;79;25880;-81
2021/03/30 10:52:36;;;;;;;11.73;8.18;;;;;;;12.93;81.62;101705.41;1765375;79;26767;-76
2021/03/30 10:54:56;;;;;;;14.45;11.83;;;;;;;12.95;81.73;101705.25;1763977;79;26338;-79
2021/03/30 10:57:25;;;;;;;18.45;13.68;;;;;;;12.95;81.60;101702.13;1766791;79;26204;-81
2021/03/30 10:59:51;;;;;;;16.32;12.25;;;;;;;12.97;81.81;101702.00;1767272;79;25976;-82
2021/03/30 11:02:18;;;;;;;20.12;14.93;;;;;;;13.00;81.69;101705.64;1766763;79;26285;-78
2021/03/30 11:04:44;;;;;;;19.90;16.37;;;;;;;12.98;81.54;101711.02;1728645;80;25801;-76
2021/03/30 11:07:13;;;;;;;21.48;16.67;;;;;;;12.98;81.56;101707.57;1769327;79;25814;-78
2021/03/30 11:09:39;;;;;;;17.40;14.38;;;;;;;12.98;81.75;101710.20;1770330;79;26154;-78
2021/03/30 11:12:07;;;;;;;21.77;14.25;;;;;;;12.98;81.52;101708.39;1766556;79;26166;-78
2021/03/30 11:14:33;;;;;;;19.70;16.05;;;;;;;12.98;81.47;101714.14;1766899;80;25715;-79
2021/03/30 11:16:59;;;;;;;17.82;15.58;;;;;;;12.96;81.20;101705.11;1767645;79;26435;-79
2021/03/30 11:19:26;;;;;;;19.35;16.25;;;;;;;12.93;81.03;101705.88;1769049;79;25634;-78
2021/03/30 11:21:53;;;;;;;17.95;15.32;;;;;;;12.91;81.26;101694.72;1767663;79;25775;-79
2021/03/30 11:24:21;;;;;;;22.07;17.30;;;;;;;12.92;81.35;101701.12;1770482;79;26216;-80
2021/03/30 11:26:51;;;;;;;20.82;16.60;;;;;;;12.91;81.32;101699.48;1765614;79;25372;-80
2021/03/30 11:37:10;;;;;;;15.55;12.05;;;;;;;12.93;81.08;101695.38;1766006;79;25874;-74
2021/03/30 11:39:27;;;;;;;20.40;15.20;;;;;;;12.89;80.95;101699.61;1760857;80;25418;-74
2021/03/30 11:41:54;;;;;;;18.27;15.10;;;;;;;12.85;81.20;101688.27;1766139;79;26375;-79